ITY862 DTTA-LIML
Flight info
| Callsign | ITY862 |
|---|---|
| Flight time | 1h 25m |
| Altitude | 36000 |
| Route | TOBIB3C TOBIB A725 OSMAR DCT PIRIX DCT ROMPO DCT XOPTA DCT TOBGA DCT UPDIN DCT SPEZI DCT IDONA |
| Aircraft | A21N/M-SDE2E3FGHIRWXY/LB1 |
Departure
| Time | 2026-04-27 18:00 |
|---|---|
| Airport | Tunis Carthage International Airport (DTTA) |
Arrival
| Time | 2026-04-27 19:25 |
|---|---|
| Airport | Milano Linate Airport (LIML) |
| Time | Latitude | Longitude | Altitude | Speed | Heading |
|---|---|---|---|---|---|
| 2026-04-27 17:46 | 36.84536 | 10.21832 | 36 ft | 0 kts | 41° |
| 2026-04-27 17:52 | 36.84520 | 10.21815 | 36 ft | 4 kts | 45° |
| 2026-04-27 17:52 | 36.84510 | 10.21800 | 36 ft | 3 kts | 43° |
| 2026-04-27 17:52 | 36.84495 | 10.21786 | 36 ft | 3 kts | 14° |
| 2026-04-27 17:53 | 36.84480 | 10.21785 | 36 ft | 4 kts | 337° |
| 2026-04-27 17:53 | 36.84466 | 10.21795 | 36 ft | 4 kts | 301° |
| 2026-04-27 17:53 | 36.84456 | 10.21819 | 36 ft | 4 kts | 286° |
| 2026-04-27 17:53 | 36.84453 | 10.21851 | 36 ft | 4 kts | 280° |
| 2026-04-27 17:54 | 36.84447 | 10.21883 | 36 ft | 4 kts | 282° |
| 2026-04-27 17:54 | 36.84441 | 10.21916 | 36 ft | 4 kts | 287° |
| 2026-04-27 17:54 | 36.84432 | 10.21948 | 36 ft | 4 kts | 292° |
| 2026-04-27 17:54 | 36.84422 | 10.21978 | 36 ft | 2 kts | 295° |
| 2026-04-27 17:55 | 36.84419 | 10.21985 | 36 ft | 0 kts | 295° |
| 2026-04-27 17:56 | 36.84424 | 10.21981 | 36 ft | 2 kts | 334° |
| 2026-04-27 17:56 | 36.84441 | 10.21999 | 36 ft | 5 kts | 46° |
| 2026-04-27 17:57 | 36.84475 | 10.22043 | 36 ft | 9 kts | 47° |
| 2026-04-27 17:57 | 36.84506 | 10.22137 | 36 ft | 14 kts | 88° |
| 2026-04-27 17:57 | 36.84539 | 10.22249 | 36 ft | 18 kts | 28° |
| 2026-04-27 17:57 | 36.84673 | 10.22303 | 36 ft | 22 kts | 10° |
| 2026-04-27 17:58 | 36.84831 | 10.22339 | 36 ft | 24 kts | 10° |
| 2026-04-27 17:58 | 36.84985 | 10.22380 | 36 ft | 22 kts | 332° |
| 2026-04-27 17:58 | 36.85048 | 10.22212 | 36 ft | 23 kts | 292° |
| 2026-04-27 17:58 | 36.85114 | 10.22024 | 36 ft | 24 kts | 293° |
| 2026-04-27 17:59 | 36.85183 | 10.21824 | 35 ft | 26 kts | 293° |
| 2026-04-27 17:59 | 36.85296 | 10.21713 | 35 ft | 23 kts | 17° |
| 2026-04-27 17:59 | 36.85407 | 10.21799 | 37 ft | 13 kts | 83° |
| 2026-04-27 17:59 | 36.85364 | 10.21952 | 37 ft | 40 kts | 112° |
| 2026-04-27 18:00 | 36.85165 | 10.22557 | 41 ft | 108 kts | 112° |
| 2026-04-27 18:00 | 36.84797 | 10.23645 | 62 ft | 156 kts | 113° |
| 2026-04-27 18:00 | 36.84393 | 10.24857 | 670 ft | 149 kts | 113° |
| 2026-04-27 18:00 | 36.83995 | 10.26055 | 1238 ft | 149 kts | 114° |
| 2026-04-27 18:01 | 36.83626 | 10.27329 | 1651 ft | 162 kts | 108° |
| 2026-04-27 18:01 | 36.83079 | 10.28541 | 2304 ft | 163 kts | 130° |
| 2026-04-27 18:01 | 36.82378 | 10.29761 | 2857 ft | 183 kts | 116° |
| 2026-04-27 18:01 | 36.81634 | 10.31116 | 3465 ft | 200 kts | 143° |
| 2026-04-27 18:02 | 36.80286 | 10.31612 | 4134 ft | 213 kts | 184° |
| 2026-04-27 18:02 | 36.78921 | 10.30877 | 4820 ft | 221 kts | 224° |
| 2026-04-27 18:02 | 36.78197 | 10.29208 | 5616 ft | 225 kts | 259° |
| 2026-04-27 18:02 | 36.78236 | 10.27265 | 6456 ft | 232 kts | 288° |
| 2026-04-27 18:03 | 36.79138 | 10.25590 | 7210 ft | 240 kts | 321° |
| 2026-04-27 18:03 | 36.80639 | 10.24660 | 8094 ft | 244 kts | 341° |
| 2026-04-27 18:03 | 36.82314 | 10.24099 | 8808 ft | 259 kts | 349° |
| 2026-04-27 18:03 | 36.84189 | 10.23922 | 9284 ft | 281 kts | 356° |
| 2026-04-27 18:04 | 36.86175 | 10.23857 | 10033 ft | 290 kts | 356° |
| 2026-04-27 18:04 | 36.88247 | 10.23779 | 10573 ft | 308 kts | 355° |
| 2026-04-27 18:04 | 36.90460 | 10.23675 | 11046 ft | 326 kts | 355° |
| 2026-04-27 18:04 | 36.92752 | 10.23557 | 11799 ft | 332 kts | 354° |
| 2026-04-27 18:05 | 36.95073 | 10.23431 | 12675 ft | 336 kts | 354° |
| 2026-04-27 18:05 | 36.97419 | 10.23301 | 13566 ft | 339 kts | 353° |
| 2026-04-27 18:05 | 36.99789 | 10.23169 | 14374 ft | 342 kts | 353° |
| 2026-04-27 18:05 | 37.02183 | 10.23033 | 15125 ft | 347 kts | 353° |
| 2026-04-27 18:06 | 37.04580 | 10.22896 | 15841 ft | 352 kts | 353° |
| 2026-04-27 18:06 | 37.07043 | 10.22755 | 16554 ft | 357 kts | 353° |
| 2026-04-27 18:06 | 37.09577 | 10.22610 | 17281 ft | 362 kts | 353° |
| 2026-04-27 18:06 | 37.12108 | 10.22464 | 17988 ft | 367 kts | 353° |
| 2026-04-27 18:07 | 37.14646 | 10.22318 | 18643 ft | 372 kts | 353° |
| 2026-04-27 18:07 | 37.17270 | 10.22169 | 19286 ft | 375 kts | 353° |
| 2026-04-27 18:07 | 37.19885 | 10.22021 | 19938 ft | 378 kts | 353° |
| 2026-04-27 18:07 | 37.22489 | 10.21874 | 20578 ft | 380 kts | 353° |
| 2026-04-27 18:08 | 37.25141 | 10.21724 | 21217 ft | 383 kts | 353° |
| 2026-04-27 18:08 | 37.27815 | 10.21572 | 21874 ft | 386 kts | 353° |
| 2026-04-27 18:08 | 37.30503 | 10.21423 | 22490 ft | 389 kts | 353° |
| 2026-04-27 18:08 | 37.33218 | 10.21271 | 23104 ft | 392 kts | 354° |
| 2026-04-27 18:09 | 37.35956 | 10.21117 | 23694 ft | 395 kts | 354° |
| 2026-04-27 18:09 | 37.38715 | 10.20962 | 24186 ft | 398 kts | 354° |
| 2026-04-27 18:09 | 37.41492 | 10.20806 | 24709 ft | 400 kts | 354° |
| 2026-04-27 18:09 | 37.43370 | 10.20696 | 25047 ft | 402 kts | 354° |
| 2026-04-27 18:10 | 37.47083 | 10.20472 | 25702 ft | 405 kts | 354° |
| 2026-04-27 18:10 | 37.49907 | 10.20310 | 26196 ft | 407 kts | 354° |
| 2026-04-27 18:10 | 37.51822 | 10.20201 | 26543 ft | 408 kts | 354° |
| 2026-04-27 18:10 | 37.55597 | 10.19981 | 27120 ft | 412 kts | 354° |
| 2026-04-27 18:11 | 37.57535 | 10.19867 | 27406 ft | 414 kts | 354° |
| 2026-04-27 18:11 | 37.60423 | 10.19700 | 27829 ft | 417 kts | 354° |
| 2026-04-27 18:11 | 37.63332 | 10.19529 | 28247 ft | 419 kts | 354° |
| 2026-04-27 18:11 | 37.66257 | 10.19358 | 28652 ft | 422 kts | 354° |
| 2026-04-27 18:12 | 37.69198 | 10.19188 | 29057 ft | 424 kts | 354° |
| 2026-04-27 18:12 | 37.72121 | 10.19020 | 29450 ft | 427 kts | 354° |
| 2026-04-27 18:12 | 37.75093 | 10.18847 | 29841 ft | 429 kts | 354° |
| 2026-04-27 18:12 | 37.78127 | 10.18674 | 30205 ft | 432 kts | 354° |
| 2026-04-27 18:13 | 37.81139 | 10.18499 | 30531 ft | 434 kts | 354° |
| 2026-04-27 18:13 | 37.84166 | 10.18324 | 30875 ft | 436 kts | 354° |
| 2026-04-27 18:13 | 37.87155 | 10.18149 | 31219 ft | 437 kts | 354° |
| 2026-04-27 18:13 | 37.90199 | 10.17969 | 31560 ft | 439 kts | 354° |
| 2026-04-27 18:14 | 37.93258 | 10.17792 | 31899 ft | 440 kts | 354° |
| 2026-04-27 18:14 | 37.96321 | 10.17613 | 32208 ft | 441 kts | 354° |
| 2026-04-27 18:14 | 37.99388 | 10.17433 | 32535 ft | 442 kts | 354° |
| 2026-04-27 18:14 | 38.02460 | 10.17252 | 32944 ft | 440 kts | 354° |
| 2026-04-27 18:15 | 38.05512 | 10.17073 | 33363 ft | 438 kts | 354° |
| 2026-04-27 18:15 | 38.08546 | 10.16895 | 33759 ft | 436 kts | 354° |
| 2026-04-27 18:15 | 38.11572 | 10.16719 | 34124 ft | 435 kts | 354° |
| 2026-04-27 18:15 | 38.14594 | 10.16543 | 34398 ft | 434 kts | 354° |
| 2026-04-27 18:16 | 38.17616 | 10.16368 | 34647 ft | 434 kts | 354° |
| 2026-04-27 18:16 | 38.20631 | 10.16191 | 34883 ft | 434 kts | 354° |
| 2026-04-27 18:16 | 38.23653 | 10.16013 | 35115 ft | 435 kts | 354° |
| 2026-04-27 18:16 | 38.26674 | 10.15840 | 35330 ft | 435 kts | 354° |
| 2026-04-27 18:17 | 38.29697 | 10.15667 | 35554 ft | 435 kts | 354° |
| 2026-04-27 18:17 | 38.32726 | 10.15492 | 35770 ft | 435 kts | 354° |
| 2026-04-27 18:17 | 38.35752 | 10.15316 | 35979 ft | 435 kts | 354° |
| 2026-04-27 18:17 | 38.38772 | 10.15138 | 36187 ft | 435 kts | 354° |
| 2026-04-27 18:18 | 38.41800 | 10.14959 | 36397 ft | 435 kts | 353° |
| 2026-04-27 18:18 | 38.44829 | 10.14778 | 36595 ft | 435 kts | 353° |
| 2026-04-27 18:18 | 38.47856 | 10.14595 | 36803 ft | 436 kts | 354° |
| 2026-04-27 18:18 | 38.50881 | 10.14416 | 36997 ft | 436 kts | 354° |
| 2026-04-27 18:19 | 38.53910 | 10.14240 | 37184 ft | 436 kts | 354° |
| 2026-04-27 18:19 | 38.56937 | 10.14057 | 37368 ft | 436 kts | 354° |
| 2026-04-27 18:19 | 38.59968 | 10.13879 | 37554 ft | 436 kts | 354° |
| 2026-04-27 18:19 | 38.62997 | 10.13703 | 37731 ft | 436 kts | 354° |
| 2026-04-27 18:20 | 38.66024 | 10.13527 | 37923 ft | 436 kts | 354° |
| 2026-04-27 18:20 | 38.69054 | 10.13348 | 38085 ft | 436 kts | 354° |
| 2026-04-27 18:20 | 38.75122 | 10.12984 | 38137 ft | 436 kts | 354° |
| 2026-04-27 18:21 | 38.81182 | 10.12622 | 38116 ft | 436 kts | 354° |
| 2026-04-27 18:21 | 38.87244 | 10.12256 | 38113 ft | 436 kts | 354° |
| 2026-04-27 18:22 | 38.93305 | 10.11890 | 38130 ft | 436 kts | 354° |
| 2026-04-27 18:22 | 38.99358 | 10.11524 | 38114 ft | 435 kts | 354° |
| 2026-04-27 18:23 | 39.05419 | 10.11162 | 38110 ft | 435 kts | 354° |
| 2026-04-27 18:23 | 39.11471 | 10.10797 | 38117 ft | 435 kts | 354° |
| 2026-04-27 18:24 | 39.17523 | 10.10431 | 38114 ft | 436 kts | 354° |
| 2026-04-27 18:24 | 39.23582 | 10.10064 | 38114 ft | 436 kts | 354° |
| 2026-04-27 18:25 | 39.29635 | 10.09702 | 38123 ft | 436 kts | 354° |
| 2026-04-27 18:25 | 39.35695 | 10.09335 | 38118 ft | 436 kts | 354° |
| 2026-04-27 18:26 | 39.41746 | 10.08961 | 38126 ft | 435 kts | 354° |
| 2026-04-27 18:26 | 39.47788 | 10.08592 | 38122 ft | 435 kts | 354° |
| 2026-04-27 18:27 | 39.53833 | 10.08223 | 38121 ft | 435 kts | 354° |
| 2026-04-27 18:27 | 39.59877 | 10.07855 | 38130 ft | 435 kts | 354° |
| 2026-04-27 18:28 | 39.65916 | 10.07484 | 38119 ft | 434 kts | 354° |
| 2026-04-27 18:28 | 39.71952 | 10.07109 | 38122 ft | 434 kts | 354° |
| 2026-04-27 18:29 | 39.77991 | 10.06733 | 38119 ft | 434 kts | 354° |
| 2026-04-27 18:29 | 39.84028 | 10.06364 | 38126 ft | 434 kts | 355° |
| 2026-04-27 18:30 | 39.90056 | 10.05994 | 38118 ft | 434 kts | 355° |
| 2026-04-27 18:30 | 39.96087 | 10.05614 | 38118 ft | 434 kts | 355° |
| 2026-04-27 18:31 | 40.02119 | 10.05242 | 38114 ft | 434 kts | 355° |
| 2026-04-27 18:31 | 40.08146 | 10.04864 | 38115 ft | 434 kts | 355° |
| 2026-04-27 18:32 | 40.14177 | 10.04489 | 38117 ft | 434 kts | 355° |
| 2026-04-27 18:32 | 40.20205 | 10.04115 | 38118 ft | 434 kts | 355° |
| 2026-04-27 18:33 | 40.26231 | 10.03745 | 38114 ft | 434 kts | 355° |
| 2026-04-27 18:33 | 40.32256 | 10.03363 | 38113 ft | 433 kts | 355° |
| 2026-04-27 18:34 | 40.38285 | 10.02988 | 38111 ft | 433 kts | 355° |
| 2026-04-27 18:34 | 40.44313 | 10.02623 | 38113 ft | 434 kts | 355° |
| 2026-04-27 18:35 | 40.50339 | 10.02242 | 38120 ft | 433 kts | 355° |
| 2026-04-27 18:35 | 40.56357 | 10.01860 | 38116 ft | 433 kts | 355° |
| 2026-04-27 18:36 | 40.62376 | 10.01482 | 38112 ft | 433 kts | 355° |
| 2026-04-27 18:36 | 40.68395 | 10.01090 | 38113 ft | 433 kts | 355° |
| 2026-04-27 18:37 | 40.74408 | 10.00701 | 38117 ft | 433 kts | 355° |
| 2026-04-27 18:37 | 40.80425 | 10.00332 | 38115 ft | 433 kts | 355° |
| 2026-04-27 18:38 | 40.86443 | 9.99954 | 38111 ft | 433 kts | 355° |
| 2026-04-27 18:38 | 40.92449 | 9.99570 | 38118 ft | 433 kts | 355° |
| 2026-04-27 18:39 | 40.98466 | 9.99191 | 38118 ft | 433 kts | 355° |
| 2026-04-27 18:39 | 41.04477 | 9.98806 | 38116 ft | 433 kts | 355° |
| 2026-04-27 18:40 | 41.10487 | 9.98417 | 38115 ft | 432 kts | 355° |
| 2026-04-27 18:40 | 41.16498 | 9.98043 | 38114 ft | 432 kts | 355° |
| 2026-04-27 18:41 | 41.22510 | 9.97654 | 38115 ft | 432 kts | 355° |
| 2026-04-27 18:41 | 41.28475 | 9.97265 | 38115 ft | 432 kts | 355° |
| 2026-04-27 18:42 | 41.33503 | 9.96937 | 38115 ft | 432 kts | 355° |
| 2026-04-27 18:42 | 41.40474 | 9.96490 | 38115 ft | 431 kts | 355° |
| 2026-04-27 18:43 | 41.46476 | 9.96101 | 38118 ft | 431 kts | 355° |
| 2026-04-27 18:43 | 41.52477 | 9.95720 | 38121 ft | 431 kts | 355° |
| 2026-04-27 18:44 | 41.58471 | 9.95335 | 38124 ft | 431 kts | 355° |
| 2026-04-27 18:44 | 41.64457 | 9.94935 | 38121 ft | 431 kts | 355° |
| 2026-04-27 18:45 | 41.70448 | 9.94546 | 38121 ft | 431 kts | 355° |
| 2026-04-27 18:45 | 41.76436 | 9.94166 | 38121 ft | 431 kts | 355° |
| 2026-04-27 18:46 | 41.82421 | 9.93788 | 38121 ft | 431 kts | 355° |
| 2026-04-27 18:46 | 41.88408 | 9.93397 | 38121 ft | 431 kts | 355° |
| 2026-04-27 18:47 | 41.94399 | 9.92923 | 38115 ft | 430 kts | 351° |
| 2026-04-27 18:47 | 42.00287 | 9.91599 | 38125 ft | 429 kts | 348° |
| 2026-04-27 18:48 | 42.06180 | 9.90371 | 38122 ft | 429 kts | 351° |
| 2026-04-27 18:48 | 42.12105 | 9.89315 | 38122 ft | 430 kts | 351° |
| 2026-04-27 18:49 | 42.18033 | 9.88238 | 38117 ft | 430 kts | 351° |
| 2026-04-27 18:49 | 42.23951 | 9.87179 | 38117 ft | 429 kts | 351° |
| 2026-04-27 18:50 | 42.29868 | 9.86116 | 38121 ft | 429 kts | 351° |
| 2026-04-27 18:50 | 42.35783 | 9.85019 | 38120 ft | 429 kts | 351° |
| 2026-04-27 18:51 | 42.41703 | 9.83945 | 38117 ft | 429 kts | 351° |
| 2026-04-27 18:51 | 42.47617 | 9.82878 | 38113 ft | 429 kts | 351° |
| 2026-04-27 18:52 | 42.53541 | 9.81787 | 38115 ft | 430 kts | 351° |
| 2026-04-27 18:53 | 42.61433 | 9.80350 | 38121 ft | 429 kts | 351° |
| 2026-04-27 18:53 | 42.67341 | 9.79243 | 38117 ft | 429 kts | 351° |
| 2026-04-27 18:54 | 42.73248 | 9.78148 | 38116 ft | 429 kts | 351° |
| 2026-04-27 18:54 | 42.79162 | 9.77051 | 38117 ft | 429 kts | 351° |
| 2026-04-27 18:55 | 42.85070 | 9.75958 | 38125 ft | 428 kts | 351° |
| 2026-04-27 18:55 | 42.90978 | 9.74866 | 38121 ft | 428 kts | 351° |
| 2026-04-27 18:56 | 42.96889 | 9.73769 | 38119 ft | 428 kts | 351° |
| 2026-04-27 18:56 | 43.02794 | 9.72665 | 38124 ft | 428 kts | 351° |
| 2026-04-27 18:57 | 43.08697 | 9.71560 | 38122 ft | 428 kts | 351° |
| 2026-04-27 18:57 | 43.14605 | 9.70470 | 38124 ft | 428 kts | 351° |
| 2026-04-27 18:58 | 43.20511 | 9.69365 | 38122 ft | 428 kts | 351° |
| 2026-04-27 18:58 | 43.26408 | 9.68238 | 38122 ft | 427 kts | 351° |
| 2026-04-27 18:59 | 43.32260 | 9.67136 | 38125 ft | 427 kts | 351° |
| 2026-04-27 18:59 | 43.38191 | 9.66036 | 38124 ft | 427 kts | 351° |
| 2026-04-27 19:00 | 43.44080 | 9.64932 | 38130 ft | 426 kts | 351° |
| 2026-04-27 19:00 | 43.46990 | 9.64379 | 37853 ft | 421 kts | 351° |
| 2026-04-27 19:00 | 43.49917 | 9.63817 | 36805 ft | 428 kts | 351° |
| 2026-04-27 19:00 | 43.52859 | 9.63255 | 35706 ft | 436 kts | 352° |
| 2026-04-27 19:01 | 43.55909 | 9.62686 | 34835 ft | 436 kts | 352° |
| 2026-04-27 19:01 | 43.58901 | 9.62114 | 34137 ft | 430 kts | 352° |
| 2026-04-27 19:01 | 43.61811 | 9.61562 | 33427 ft | 426 kts | 352° |
| 2026-04-27 19:01 | 43.64740 | 9.61001 | 32773 ft | 423 kts | 352° |
| 2026-04-27 19:02 | 43.67637 | 9.60439 | 32158 ft | 419 kts | 352° |
| 2026-04-27 19:02 | 43.70514 | 9.59884 | 31556 ft | 416 kts | 352° |
| 2026-04-27 19:02 | 43.73369 | 9.59338 | 30963 ft | 412 kts | 352° |
| 2026-04-27 19:02 | 43.76195 | 9.58798 | 30384 ft | 409 kts | 352° |
| 2026-04-27 19:03 | 43.79006 | 9.58260 | 29745 ft | 406 kts | 352° |
| 2026-04-27 19:03 | 43.81791 | 9.57725 | 29091 ft | 402 kts | 352° |
| 2026-04-27 19:03 | 43.84551 | 9.57195 | 28496 ft | 398 kts | 352° |
| 2026-04-27 19:03 | 43.86397 | 9.56840 | 28086 ft | 395 kts | 352° |
| 2026-04-27 19:04 | 43.89994 | 9.56147 | 27259 ft | 392 kts | 352° |
| 2026-04-27 19:04 | 43.92682 | 9.55631 | 26652 ft | 389 kts | 352° |
| 2026-04-27 19:04 | 43.95356 | 9.55120 | 26064 ft | 387 kts | 352° |
| 2026-04-27 19:04 | 43.98012 | 9.54610 | 25494 ft | 384 kts | 352° |
| 2026-04-27 19:05 | 44.00657 | 9.54100 | 24924 ft | 382 kts | 351° |
| 2026-04-27 19:05 | 44.03280 | 9.53597 | 24387 ft | 379 kts | 351° |
| 2026-04-27 19:05 | 44.05885 | 9.53098 | 23858 ft | 377 kts | 351° |
| 2026-04-27 19:05 | 44.08478 | 9.52598 | 23259 ft | 374 kts | 351° |
| 2026-04-27 19:06 | 44.11047 | 9.52103 | 22705 ft | 371 kts | 351° |
| 2026-04-27 19:06 | 44.13594 | 9.51607 | 22130 ft | 368 kts | 351° |
| 2026-04-27 19:06 | 44.16124 | 9.51115 | 21575 ft | 365 kts | 351° |
| 2026-04-27 19:06 | 44.18628 | 9.50629 | 21037 ft | 362 kts | 351° |
| 2026-04-27 19:07 | 44.21117 | 9.50153 | 20515 ft | 360 kts | 351° |
| 2026-04-27 19:07 | 44.23588 | 9.49680 | 19997 ft | 357 kts | 351° |
| 2026-04-27 19:07 | 44.26036 | 9.49206 | 19521 ft | 353 kts | 351° |
| 2026-04-27 19:07 | 44.28462 | 9.48732 | 19010 ft | 351 kts | 351° |
| 2026-04-27 19:08 | 44.30876 | 9.48258 | 18515 ft | 349 kts | 351° |
| 2026-04-27 19:08 | 44.33268 | 9.47790 | 17992 ft | 346 kts | 351° |
| 2026-04-27 19:08 | 44.35646 | 9.47320 | 17448 ft | 344 kts | 351° |
| 2026-04-27 19:08 | 44.38011 | 9.46853 | 16946 ft | 341 kts | 351° |
| 2026-04-27 19:09 | 44.40353 | 9.46393 | 16438 ft | 339 kts | 351° |
| 2026-04-27 19:09 | 44.42680 | 9.45942 | 15927 ft | 337 kts | 352° |
| 2026-04-27 19:09 | 44.44996 | 9.45490 | 15433 ft | 335 kts | 351° |
| 2026-04-27 19:09 | 44.47295 | 9.45037 | 14991 ft | 332 kts | 351° |
| 2026-04-27 19:10 | 44.49576 | 9.44589 | 14516 ft | 330 kts | 352° |
| 2026-04-27 19:10 | 44.51846 | 9.44145 | 14056 ft | 328 kts | 352° |
| 2026-04-27 19:10 | 44.54096 | 9.43704 | 13615 ft | 325 kts | 352° |
| 2026-04-27 19:10 | 44.55576 | 9.43413 | 13282 ft | 324 kts | 352° |
| 2026-04-27 19:11 | 44.58551 | 9.42828 | 12597 ft | 322 kts | 352° |
| 2026-04-27 19:11 | 44.60756 | 9.42394 | 12035 ft | 319 kts | 352° |
| 2026-04-27 19:11 | 44.62938 | 9.41964 | 11643 ft | 314 kts | 351° |
| 2026-04-27 19:11 | 44.65084 | 9.41538 | 11299 ft | 309 kts | 351° |
| 2026-04-27 19:12 | 44.67191 | 9.41124 | 10966 ft | 304 kts | 351° |
| 2026-04-27 19:12 | 44.69270 | 9.40716 | 10638 ft | 298 kts | 351° |
| 2026-04-27 19:12 | 44.71316 | 9.40309 | 10325 ft | 294 kts | 351° |
| 2026-04-27 19:12 | 44.73316 | 9.39914 | 10075 ft | 287 kts | 351° |
| 2026-04-27 19:13 | 44.75294 | 9.39523 | 9783 ft | 287 kts | 351° |
| 2026-04-27 19:13 | 44.77257 | 9.39136 | 9412 ft | 284 kts | 351° |
| 2026-04-27 19:13 | 44.79210 | 9.38749 | 9050 ft | 284 kts | 351° |
| 2026-04-27 19:13 | 44.81169 | 9.38360 | 8711 ft | 284 kts | 351° |
| 2026-04-27 19:14 | 44.83124 | 9.37969 | 8383 ft | 284 kts | 351° |
| 2026-04-27 19:14 | 44.85084 | 9.37582 | 8068 ft | 284 kts | 351° |
| 2026-04-27 19:14 | 44.87044 | 9.37196 | 7783 ft | 284 kts | 351° |
| 2026-04-27 19:14 | 44.88999 | 9.36810 | 7483 ft | 284 kts | 351° |
| 2026-04-27 19:15 | 44.90955 | 9.36425 | 7173 ft | 283 kts | 351° |
| 2026-04-27 19:15 | 44.92896 | 9.36036 | 6841 ft | 279 kts | 351° |
| 2026-04-27 19:15 | 44.94835 | 9.35650 | 6525 ft | 279 kts | 351° |
| 2026-04-27 19:15 | 44.96737 | 9.35269 | 6209 ft | 279 kts | 351° |
| 2026-04-27 19:16 | 44.98663 | 9.34887 | 5882 ft | 279 kts | 352° |
| 2026-04-27 19:16 | 44.99935 | 9.34635 | 5674 ft | 279 kts | 352° |
| 2026-04-27 19:16 | 45.02485 | 9.34129 | 5268 ft | 274 kts | 351° |
| 2026-04-27 19:16 | 45.04387 | 9.33748 | 4966 ft | 272 kts | 351° |
| 2026-04-27 19:17 | 45.06242 | 9.33377 | 4645 ft | 273 kts | 352° |
| 2026-04-27 19:17 | 45.08120 | 9.33001 | 4302 ft | 273 kts | 352° |
| 2026-04-27 19:17 | 45.09999 | 9.32624 | 4026 ft | 269 kts | 352° |
| 2026-04-27 19:17 | 45.11810 | 9.32263 | 3944 ft | 256 kts | 351° |
| 2026-04-27 19:18 | 45.13510 | 9.31826 | 3934 ft | 240 kts | 348° |
| 2026-04-27 19:18 | 45.15111 | 9.31398 | 3932 ft | 231 kts | 350° |
| 2026-04-27 19:18 | 45.16626 | 9.31071 | 3977 ft | 209 kts | 352° |
| 2026-04-27 19:18 | 45.17975 | 9.30847 | 3950 ft | 182 kts | 354° |
| 2026-04-27 19:19 | 45.19141 | 9.30686 | 3935 ft | 151 kts | 354° |
| 2026-04-27 19:19 | 45.20152 | 9.30559 | 3940 ft | 145 kts | 354° |
| 2026-04-27 19:19 | 45.21154 | 9.30436 | 3943 ft | 145 kts | 355° |
| 2026-04-27 19:19 | 45.22158 | 9.30315 | 3951 ft | 145 kts | 355° |
| 2026-04-27 19:20 | 45.23180 | 9.30194 | 3954 ft | 145 kts | 355° |
| 2026-04-27 19:20 | 45.24171 | 9.30078 | 3911 ft | 145 kts | 355° |
| 2026-04-27 19:20 | 45.25187 | 9.29959 | 3809 ft | 144 kts | 355° |
| 2026-04-27 19:20 | 45.26178 | 9.29843 | 3651 ft | 144 kts | 355° |
| 2026-04-27 19:21 | 45.27177 | 9.29727 | 3474 ft | 144 kts | 355° |
| 2026-04-27 19:21 | 45.28169 | 9.29578 | 3255 ft | 143 kts | 351° |
| 2026-04-27 19:21 | 45.29151 | 9.29336 | 3002 ft | 143 kts | 348° |
| 2026-04-27 19:21 | 45.30132 | 9.29104 | 2854 ft | 143 kts | 354° |
| 2026-04-27 19:22 | 45.31128 | 9.29048 | 2758 ft | 145 kts | 358° |
| 2026-04-27 19:22 | 45.32143 | 9.29024 | 2579 ft | 143 kts | 358° |
| 2026-04-27 19:22 | 45.33145 | 9.28995 | 2165 ft | 144 kts | 356° |
| 2026-04-27 19:22 | 45.34140 | 9.28861 | 2073 ft | 143 kts | 351° |
| 2026-04-27 19:23 | 45.35120 | 9.28680 | 2024 ft | 143 kts | 354° |
| 2026-04-27 19:23 | 45.36116 | 9.28611 | 1926 ft | 143 kts | 356° |
| 2026-04-27 19:23 | 45.37111 | 9.28494 | 1732 ft | 143 kts | 352° |
| 2026-04-27 19:23 | 45.38102 | 9.28352 | 1471 ft | 143 kts | 353° |
| 2026-04-27 19:24 | 45.39094 | 9.28261 | 1235 ft | 143 kts | 355° |
| 2026-04-27 19:24 | 45.40089 | 9.28185 | 1059 ft | 142 kts | 357° |
| 2026-04-27 19:24 | 45.41071 | 9.28075 | 906 ft | 141 kts | 353° |
| 2026-04-27 19:24 | 45.42045 | 9.27951 | 724 ft | 140 kts | 355° |
| 2026-04-27 19:25 | 45.43016 | 9.27859 | 537 ft | 140 kts | 355° |
| 2026-04-27 19:25 | 45.43997 | 9.27754 | 383 ft | 139 kts | 355° |
| 2026-04-27 19:25 | 45.44834 | 9.27653 | 370 ft | 94 kts | 359° |
| 2026-04-27 19:25 | 45.45230 | 9.27632 | 363 ft | 34 kts | 4° |
| 2026-04-27 19:26 | 45.45338 | 9.27662 | 363 ft | 2 kts | 19° |
| 2026-04-27 19:26 | 45.45368 | 9.27678 | 367 ft | 7 kts | 26° |
| 2026-04-27 19:26 | 45.45420 | 9.27742 | 369 ft | 13 kts | 41° |
| 2026-04-27 19:26 | 45.45511 | 9.27820 | 369 ft | 18 kts | 15° |
| 2026-04-27 19:27 | 45.45646 | 9.27814 | 367 ft | 21 kts | 1° |
| 2026-04-27 19:27 | 45.45796 | 9.27818 | 367 ft | 22 kts | 1° |
| 2026-04-27 19:27 | 45.45928 | 9.27844 | 369 ft | 10 kts | 19° |
| 2026-04-27 19:27 | 45.45973 | 9.27846 | 370 ft | 0 kts | 1° |